Disclaimer

Please do not use the information listed here in-flight or in-navigation, as they are not provided to us by the airports but are provided by volunteers, so they might be outdated.

Search


Regions


Airport information page

Radio informations:
ANTOFAGASTA TWR - 118.1 MHz
Ground (GND) - 121.9 MHz
ANTOFAGASTA APP - 119.3 MHz

Airport informations:
Latitude: 23° 26' 40.12" S
Longitude: 070° 26' 42.36" W
Elevation: 455 feet - 139 meters
Operating hours: 24 hour operations
Operating agency: Military-civil joint use airport
Timezone: UTC-4(-3DT)
Fuel: Jet A1, without icing nhibitor.

100/130 MIL Spec, low lead, aviation gasoline (BLUE)

Runway information:
01/19 - 8527 x 164 feet< - >2599 x 50 meters

Recent METARs:
SCFA 202000Z 19013KT 9999 FEW015 BKN032 20/13 Q1013 NOSIG
SCFA 202100Z 19012KT 9999 FEW015 BKN032 19/13 Q1013 NOSIG
SCFA 202100Z 19012KT 9999 FEW015 BKN032 19/13 Q1013 NOSIG

Airport on the map: